A80 TRACON Summary / KATL TAF
ATL TRACON Summary:
Expect VFR conditions under mostly clear skies at ATL. Surface winds will be from the northeast to southeast at 5-10kts. Significant flight hazards are not expected in the TRACON airspace.

Updated:4/24/2014 6:30 AM
ATL Terminal Aerodrome Forecast:

FTUS80 KATL 241354 AAA
KATL 241353Z 2414/2518 09010KT P6SM SKC
     FM241600 12008KT P6SM SCT060
     FM250000 16006KT P6SM BKN060
     FM250900 20006KT P6SM BKN050
     FM251200 23010KT P6SM SCT025 BKN050
     FM251500 23010G20KT P6SM BKN025
ATL TRACON Area Remark:
None.
Convective Gate Forecast / Collaborative Convective Forecast Product / Vertical Wind Profile
Convective Gate Forecast
SIGMETS/ Southeast Radar & Satellite Loops (click on image to enlarge)

Southeast Radar Loop

 



USA.gov is the U.S. government's official web portal to all federal, state and local government web resources and services.